createdAt,value
2023-05-13T00:04:01.566Z,0.0000
2023-05-13T00:05:02.002Z,0.0000
2023-05-13T00:07:13.301Z,0.0000
2023-05-13T00:13:08.384Z,0.0000
2023-05-13T00:14:11.479Z,0.0000
2023-05-13T00:15:12.403Z,0.0000
2023-05-13T00:17:15.170Z,0.0000
2023-05-13T00:18:15.529Z,0.0000
2023-05-13T00:19:16.262Z,0.0000
2023-05-13T00:20:16.688Z,0.0000
2023-05-13T00:22:19.354Z,0.0000
2023-05-13T00:23:56.203Z,0.0000
2023-05-13T00:24:20.941Z,0.0000
2023-05-13T00:25:23.416Z,0.0000
2023-05-13T00:26:24.067Z,0.0000
2023-05-13T00:28:26.829Z,0.0000
2023-05-13T00:29:27.268Z,0.0000
2023-05-13T00:31:30.073Z,0.0000
2023-05-13T00:35:43.357Z,0.0000
2023-05-13T00:40:43.311Z,0.0000
2023-05-13T00:41:45.772Z,0.0000
2023-05-13T00:42:48.992Z,0.0000
2023-05-13T00:44:51.716Z,0.0000
2023-05-13T00:48:58.507Z,0.0000
2023-05-13T00:50:01.018Z,0.0000
2023-05-13T00:51:04.156Z,0.0000
2023-05-13T00:53:07.140Z,0.0000
2023-05-13T00:54:07.706Z,0.0000
2023-05-13T00:57:13.185Z,0.0000
2023-05-13T01:01:20.334Z,0.0000
2023-05-13T01:02:39.956Z,0.0000
2023-05-13T01:03:24.255Z,0.0000
2023-05-13T01:06:28.773Z,0.0000
2023-05-13T01:07:31.272Z,0.0000
2023-05-13T01:08:33.757Z,0.0000
2023-05-13T01:09:36.509Z,0.0000
2023-05-13T01:10:37.086Z,0.0000
2023-05-13T01:11:37.740Z,0.0000
2023-05-13T01:12:38.182Z,0.0000
2023-05-13T01:18:49.579Z,0.0000
2023-05-13T01:19:50.058Z,0.0000
2023-05-13T01:28:00.462Z,0.0000
2023-05-13T01:29:03.655Z,0.0000
2023-05-13T01:30:04.149Z,0.0000
2023-05-13T01:33:07.290Z,0.0000
2023-05-13T01:40:31.854Z,0.0000
2023-05-13T01:41:20.249Z,0.0000
2023-05-13T01:44:24.793Z,0.0000
2023-05-13T01:45:27.302Z,0.0000
2023-05-13T01:46:29.862Z,0.0000
2023-05-13T01:47:32.953Z,0.0000
2023-05-13T01:48:33.317Z,0.0000
2023-05-13T01:50:35.996Z,0.0000
2023-05-13T01:51:36.325Z,0.0000
2023-05-13T01:55:41.628Z,0.0000
2023-05-13T01:57:43.826Z,0.0000
2023-05-13T01:58:43.898Z,0.0000
2023-05-13T01:59:47.106Z,0.0000
2023-05-13T02:00:47.501Z,0.0000
2023-05-13T02:01:50.478Z,0.0000
2023-05-13T02:02:50.776Z,0.0000
2023-05-13T02:12:09.891Z,0.0000
2023-05-13T02:15:15.057Z,0.0000
2023-05-13T02:16:15.880Z,0.0000
2023-05-13T02:18:18.788Z,0.0000
2023-05-13T02:19:19.212Z,0.0000
2023-05-13T02:20:20.066Z,0.0000
2023-05-13T02:21:20.450Z,0.0000
2023-05-13T02:22:21.319Z,0.0000
2023-05-13T02:26:47.274Z,0.0000
2023-05-13T02:27:28.944Z,0.0000
2023-05-13T02:29:38.947Z,0.0000
2023-05-13T02:39:48.085Z,0.0000
2023-05-13T02:40:48.829Z,0.0000
2023-05-13T02:42:51.977Z,0.0000
2023-05-13T02:43:52.734Z,0.0000
2023-05-13T02:44:53.192Z,0.0000
2023-05-13T02:45:53.748Z,0.0000
2023-05-13T02:52:02.716Z,0.0000
2023-05-13T02:53:03.174Z,0.0000
2023-05-13T02:56:08.411Z,0.0000
2023-05-13T02:57:08.835Z,0.0000
2023-05-13T02:58:09.505Z,0.0000
2023-05-13T02:59:10.038Z,0.0000
2023-05-13T03:00:11.151Z,0.0000
2023-05-13T03:02:14.040Z,0.0000
2023-05-13T03:03:14.491Z,0.0000
2023-05-13T03:04:14.608Z,0.0000
2023-05-13T03:05:17.143Z,0.0000
2023-05-13T03:06:19.693Z,0.0000
2023-05-13T03:07:22.255Z,0.0000
2023-05-13T03:08:24.800Z,0.0000
2023-05-13T03:11:29.953Z,0.0000
2023-05-13T03:12:33.191Z,0.0000
2023-05-13T03:14:36.214Z,0.0000
2023-05-13T03:15:37.586Z,0.0000
2023-05-13T03:16:37.483Z,0.0000
2023-05-13T03:17:48.714Z,0.0000
2023-05-13T03:19:41.502Z,0.0000
2023-05-13T03:22:44.505Z,0.0000
2023-05-13T03:25:49.729Z,0.0000
2023-05-13T03:28:54.933Z,3.3043
2023-05-13T03:35:03.780Z,5.2727
2023-05-13T03:36:04.224Z,6.9091
2023-05-13T03:38:07.141Z,8.0000
2023-05-13T03:40:09.952Z,9.9130
2023-05-13T03:41:10.398Z,12.0000
2023-05-13T03:43:13.202Z,15.8261
2023-05-13T03:45:15.458Z,21.9130
2023-05-13T03:46:18.007Z,25.5652
2023-05-13T03:47:21.304Z,28.3478
2023-05-13T03:57:37.154Z,81.0909
2023-05-13T03:59:39.382Z,91.4783
2023-05-13T04:00:41.912Z,98.2609
2023-05-13T04:01:44.440Z,105.7391
2023-05-13T04:02:47.694Z,113.9130
2023-05-13T04:03:48.265Z,117.8182
2023-05-13T04:05:51.156Z,122.6087
2023-05-13T04:08:53.970Z,146.9091
2023-05-13T04:20:05.378Z,317.2174
2023-05-13T04:21:07.890Z,326.0869
2023-05-13T04:22:11.042Z,345.2174
2023-05-13T04:23:11.481Z,363.8182
2023-05-13T04:26:14.393Z,401.2727
2023-05-13T04:27:14.595Z,411.0909
2023-05-13T04:28:17.886Z,428.0000
2023-05-13T04:29:18.418Z,456.9091
2023-05-13T04:32:23.737Z,552.0000
2023-05-13T04:33:24.512Z,586.5455
2023-05-13T04:35:26.772Z,685.0435
2023-05-13T04:37:32.830Z,785.3913
2023-05-13T04:40:38.025Z,977.3913
2023-05-13T04:43:42.616Z,1084.3478
2023-05-13T04:44:45.144Z,1120.6957
2023-05-13T04:45:48.082Z,1110.0869
2023-05-13T04:47:50.293Z,1076.5217
2023-05-13T04:48:52.820Z,1069.3914
2023-05-13T04:49:53.197Z,1092.7273
2023-05-13T04:50:53.670Z,1117.4546
2023-05-13T04:51:53.814Z,1170.7273
2023-05-13T04:52:54.895Z,1241.6364
2023-05-13T04:53:55.448Z,1305.2727
2023-05-13T04:54:55.900Z,1342.7273
2023-05-13T04:57:19.572Z,1381.9131
2023-05-13T04:58:01.262Z,1405.8667
2023-05-13T05:01:05.868Z,1457.9131
2023-05-13T05:02:08.449Z,1489.7391
2023-05-13T05:03:10.948Z,1516.5217
2023-05-13T05:04:13.611Z,1563.8260
2023-05-13T05:05:18.211Z,1588.6957
2023-05-13T05:06:19.154Z,1678.7273
2023-05-13T05:07:19.637Z,1721.6364
2023-05-13T05:10:24.947Z,1719.4783
2023-05-13T05:17:37.770Z,2485.5652
2023-05-13T05:18:38.596Z,2552.3635
2023-05-13T05:19:38.549Z,2643.2727
2023-05-13T05:20:41.758Z,2680.5217
2023-05-13T05:21:42.226Z,2689.0908
2023-05-13T05:25:55.158Z,2323.8262
2023-05-13T05:26:50.067Z,2255.2000
2023-05-13T05:27:52.599Z,2228.5217
2023-05-13T05:28:55.124Z,2209.0435
2023-05-13T05:29:57.708Z,2245.5652
2023-05-13T05:31:00.617Z,2161.2173
2023-05-13T05:32:01.143Z,2105.8181
2023-05-13T05:33:01.664Z,2019.2727
2023-05-13T05:35:04.589Z,2000.3478
2023-05-13T05:41:15.020Z,2434.0869
2023-05-13T05:42:15.167Z,2386.5454
2023-05-13T05:43:17.717Z,2310.0869
2023-05-13T05:45:22.645Z,2357.7390
2023-05-13T05:46:25.280Z,2410.7827
2023-05-13T05:47:28.797Z,2397.2173
2023-05-13T05:49:31.076Z,2249.9131
2023-05-13T05:50:33.647Z,2180.8696
2023-05-13T05:51:33.800Z,2131.2727
2023-05-13T05:52:37.036Z,2065.3914
2023-05-13T05:57:45.155Z,2406.2610
2023-05-13T05:58:45.011Z,2512.1819
2023-05-13T06:04:59.568Z,3164.3479
2023-05-13T06:06:02.123Z,3453.0435
2023-05-13T06:07:13.879Z,4007.4783
2023-05-13T06:09:18.799Z,4951.8262
2023-05-13T06:10:21.572Z,5342.0869
2023-05-13T06:11:21.720Z,5763.2729
2023-05-13T06:12:24.265Z,6003.4780
2023-05-13T06:13:26.810Z,6103.8262
2023-05-13T06:14:29.340Z,5978.9565
2023-05-13T06:15:31.887Z,5804.6958
2023-05-13T06:16:34.477Z,5688.1738
2023-05-13T06:17:39.404Z,5671.4780
2023-05-13T06:18:40.101Z,5797.6362
2023-05-13T06:22:47.988Z,6788.3477
2023-05-13T06:24:50.953Z,6661.5654
2023-05-13T06:26:53.863Z,6048.8696
2023-05-13T06:27:54.318Z,5690.7271
2023-05-13T06:35:04.930Z,4838.4346
2023-05-13T06:36:04.781Z,4959.6362
2023-05-13T06:37:07.373Z,5040.6958
2023-05-13T06:38:09.914Z,5111.1304
2023-05-13T06:39:12.469Z,5142.2607
2023-05-13T06:40:14.995Z,5297.9131
2023-05-13T06:41:34.662Z,5459.8262
2023-05-13T06:42:18.612Z,5625.0000
2023-05-13T06:43:18.396Z,5715.2729
2023-05-13T06:44:20.936Z,5725.3911
2023-05-13T06:45:23.531Z,5749.5654
2023-05-13T06:46:27.082Z,5766.9565
2023-05-13T06:47:27.814Z,5782.5454
2023-05-13T06:48:27.721Z,5787.6362
2023-05-13T06:49:30.233Z,5580.5220
2023-05-13T06:52:38.209Z,5487.3042
2023-05-13T06:53:38.844Z,5413.2729
2023-05-13T06:55:43.781Z,6319.8262
2023-05-13T06:56:46.356Z,6618.4346
2023-05-13T06:58:51.931Z,6895.6523
2023-05-13T06:59:52.449Z,7157.6362
2023-05-13T07:01:55.200Z,7850.2607
2023-05-13T07:02:55.937Z,8305.8184
2023-05-13T07:04:59.061Z,9296.6953
2023-05-13T07:08:03.690Z,10748.5215
2023-05-13T07:09:08.446Z,10378.7822
2023-05-13T07:10:08.443Z,10310.3633
2023-05-13T07:11:10.983Z,9664.8691
2023-05-13T07:12:13.557Z,9075.8262
2023-05-13T07:13:16.127Z,9065.0439
2023-05-13T07:14:19.179Z,9281.2178
2023-05-13T07:15:19.829Z,8484.0000
2023-05-13T07:16:40.911Z,8548.7275
2023-05-13T07:17:21.966Z,10408.5332
2023-05-13T07:18:24.809Z,11327.4785
2023-05-13T07:19:24.736Z,11409.8184
2023-05-13T07:20:27.295Z,9997.9131
2023-05-13T07:21:31.076Z,9449.2178
2023-05-13T07:22:31.167Z,8910.5459
2023-05-13T07:23:33.742Z,8058.4346
2023-05-13T07:24:36.257Z,7899.6523
2023-05-13T07:25:39.397Z,7702.6089
2023-05-13T07:29:42.373Z,5530.9092
2023-05-13T07:30:58.791Z,5587.4780
2023-05-13T07:32:47.663Z,6488.6001
2023-05-13T07:33:47.513Z,7323.8184
2023-05-13T07:34:50.099Z,7825.2173
2023-05-13T07:35:52.676Z,7793.0435
2023-05-13T07:36:56.360Z,7442.7827
2023-05-13T07:37:56.276Z,7384.5454
2023-05-13T07:38:59.524Z,6858.9565
2023-05-13T07:39:59.368Z,6141.4546
2023-05-13T07:41:02.063Z,6628.3477
2023-05-13T07:42:02.489Z,7741.8184
2023-05-13T07:44:04.820Z,7714.4346
2023-05-13T07:45:07.387Z,7685.5654
2023-05-13T07:46:09.991Z,7613.0435
2023-05-13T07:48:16.064Z,7509.7393
2023-05-13T07:50:18.421Z,6928.6958
2023-05-13T07:51:21.018Z,6289.2173
2023-05-13T07:52:23.587Z,5800.3477
2023-05-13T07:53:26.205Z,5468.5220
2023-05-13T07:54:28.806Z,5611.1304
2023-05-13T07:55:31.437Z,5923.1304
2023-05-13T07:57:37.241Z,6643.6523
2023-05-13T07:58:37.787Z,6659.6362
2023-05-13T08:00:40.957Z,6631.6523
2023-05-13T08:01:41.545Z,6728.5454
2023-05-13T08:02:42.071Z,6114.5454
2023-05-13T08:03:42.095Z,5476.0000
2023-05-13T08:04:42.587Z,5393.4546
2023-05-13T08:05:43.191Z,5710.7271
2023-05-13T08:07:46.227Z,7148.6958
2023-05-13T08:08:46.874Z,8317.4541
2023-05-13T08:11:10.992Z,10125.7393
2023-05-13T08:11:49.888Z,10645.4287
2023-05-13T08:16:57.576Z,8882.4346
2023-05-13T08:18:00.482Z,8363.8262
2023-05-13T08:19:01.177Z,8265.8184
2023-05-13T08:28:14.987Z,10070.2607
2023-05-13T08:29:15.672Z,10341.4541
2023-05-13T08:31:18.742Z,13214.7822
2023-05-13T08:32:19.545Z,14525.4541
2023-05-13T08:33:22.911Z,15318.3633
2023-05-13T08:34:20.756Z,15555.0479
2023-05-13T08:37:24.226Z,14376.0000
2023-05-13T08:38:24.784Z,14819.0908
2023-05-13T08:39:25.379Z,15803.6367
2023-05-13T08:41:26.231Z,17514.1816
2023-05-13T08:44:31.003Z,16357.5654
2023-05-13T08:45:33.616Z,15610.4346
2023-05-13T08:46:36.886Z,14601.3916
2023-05-13T08:47:37.118Z,13719.6367
2023-05-13T08:48:37.096Z,13414.9092
2023-05-13T08:49:39.735Z,13519.6523
2023-05-13T08:50:42.362Z,14033.7393
2023-05-13T08:51:45.550Z,14677.7393
2023-05-13T08:59:58.767Z,11987.6367
2023-05-13T09:02:01.211Z,10890.0869
2023-05-13T09:03:04.300Z,9973.2178
2023-05-13T09:04:07.611Z,8524.3477
2023-05-13T09:05:08.416Z,7572.7271
2023-05-13T09:07:11.397Z,7371.4780
2023-05-13T09:08:12.187Z,7656.3638
2023-05-13T09:09:12.873Z,7852.0000
2023-05-13T09:14:20.545Z,9123.3047
2023-05-13T09:15:23.341Z,8744.6953
2023-05-13T09:16:24.056Z,8207.2725
2023-05-13T09:19:29.247Z,7363.4780
2023-05-13T09:20:29.769Z,7322.5454
2023-05-13T09:21:30.457Z,7322.1816
2023-05-13T09:23:33.382Z,7269.7393
2023-05-13T09:24:35.988Z,6840.3477
2023-05-13T09:25:38.584Z,6490.4346
2023-05-13T09:26:41.161Z,6458.0869
2023-05-13T09:27:43.774Z,6706.0869
2023-05-13T09:28:47.137Z,7112.1738
2023-05-13T09:29:50.417Z,7682.2607
2023-05-13T09:31:53.411Z,9301.3916
2023-05-13T09:32:53.524Z,10152.9092
2023-05-13T09:33:56.088Z,10768.1738
2023-05-13T09:34:58.682Z,10982.6084
2023-05-13T09:36:15.501Z,11039.6523
2023-05-13T09:37:01.892Z,10961.6475
2023-05-13T09:38:05.115Z,10841.5654
2023-05-13T09:40:08.499Z,10687.3047
2023-05-13T09:47:19.410Z,12165.0439
2023-05-13T09:48:22.696Z,13042.6084
2023-05-13T09:49:23.255Z,14258.1816
2023-05-13T09:50:26.026Z,15906.6084
2023-05-13T09:51:26.525Z,17429.8184
2023-05-13T09:52:26.600Z,18938.1816
2023-05-13T09:53:29.219Z,20559.3047
2023-05-13T09:54:33.123Z,22269.2168
2023-05-13T09:55:33.038Z,24071.2734
2023-05-13T09:56:36.218Z,25796.1738
2023-05-13T09:58:38.957Z,28321.3906
2023-05-13T10:03:48.892Z,23965.2168
2023-05-13T10:04:52.188Z,20751.3047
2023-05-13T10:07:54.924Z,14230.1816
2023-05-13T10:08:58.085Z,13169.5654
2023-05-13T10:09:58.803Z,11542.5459
2023-05-13T10:10:58.994Z,9896.3633
2023-05-13T10:11:59.491Z,8722.1816
2023-05-13T10:18:10.601Z,12914.9561
2023-05-13T10:20:13.670Z,17195.1309
2023-05-13T10:25:21.500Z,30650.1816
2023-05-13T10:26:24.109Z,32695.6523
2023-05-13T10:27:26.740Z,34315.1289
2023-05-13T10:28:29.972Z,35645.2188
2023-05-13T10:29:30.499Z,36530.9102
2023-05-13T10:30:31.102Z,37066.1836
2023-05-13T10:31:31.676Z,37271.2734
2023-05-13T10:43:12.923Z,39268.1758
2023-05-13T10:43:54.593Z,37134.9336
2023-05-13T10:44:57.230Z,37986.7812
2023-05-13T10:46:00.192Z,38991.3047
2023-05-13T10:47:00.154Z,38862.5469
2023-05-13T10:48:03.288Z,38539.1289
2023-05-13T10:49:04.362Z,39050.1836
2023-05-13T10:52:08.128Z,39147.6367
2023-05-13T11:03:33.637Z,37231.3047
2023-05-13T11:04:33.677Z,37982.5469
2023-05-13T11:06:38.868Z,38340.1758
2023-05-13T11:07:41.521Z,38999.6523
2023-05-13T11:15:56.767Z,37217.4531
2023-05-13T11:16:56.835Z,36939.6367
2023-05-13T11:17:59.606Z,36640.0000
2023-05-13T11:19:09.224Z,37040.7617
2023-05-13T11:20:09.522Z,37810.9102
2023-05-13T11:21:09.527Z,38744.7266
2023-05-13T11:22:12.251Z,39240.3477
2023-05-13T11:23:12.214Z,39653.8164
2023-05-13T11:24:15.222Z,40034.7812
2023-05-13T11:25:15.349Z,40919.2734
2023-05-13T11:26:16.568Z,42055.2734
2023-05-13T11:27:32.667Z,43227.6367
2023-05-13T11:28:19.561Z,43984.9414
2023-05-13T11:29:19.573Z,43909.8164
2023-05-13T11:30:20.201Z,43426.9102
2023-05-13T11:31:20.286Z,43298.9102
2023-05-13T11:34:28.538Z,42359.6523
2023-05-13T11:39:38.368Z,46377.7383
2023-05-13T11:40:40.954Z,47855.3047
2023-05-13T11:41:41.009Z,48440.7266
2023-05-13T11:42:43.753Z,45810.0859
2023-05-13T11:43:43.831Z,46016.0000
2023-05-13T11:44:44.031Z,49147.6367
2023-05-13T11:45:44.405Z,51746.9102
2023-05-13T11:46:45.471Z,51542.8555
2023-05-13T11:47:48.180Z,53174.2617
2023-05-13T11:48:48.057Z,54356.3633
2023-05-13T11:49:50.708Z,57057.3906
2023-05-13T11:53:47.975Z,97882.1797
2023-05-13T11:54:48.223Z,101874.9062
2023-05-13T11:55:48.352Z,83476.3672
2023-05-13T11:57:53.609Z,54742.2617
2023-05-13T12:04:05.055Z,107447.2734
2023-05-13T12:05:05.589Z,82648.7266
2023-05-13T12:06:06.904Z,50039.2734
2023-05-13T12:07:07.416Z,42324.3633
2023-05-13T12:08:08.184Z,41378.9102
2023-05-13T12:10:11.210Z,52186.4336
2023-05-13T12:16:19.070Z,55165.0898
2023-05-13T12:17:19.414Z,55636.3633
2023-05-13T12:18:19.547Z,69653.8203
2023-05-13T12:19:19.811Z,75957.8203
2023-05-13T12:20:20.013Z,73339.6328
2023-05-13T12:21:20.018Z,67981.0938
2023-05-13T12:22:20.564Z,64577.4531
2023-05-13T12:23:22.067Z,36075.6367
2023-05-13T12:29:28.156Z,21239.1113
2023-05-13T12:32:31.244Z,19486.5449
2023-05-13T12:36:39.458Z,13761.7393
2023-05-13T12:37:39.620Z,12907.0908
2023-05-13T12:38:39.875Z,12202.3633
2023-05-13T12:39:39.838Z,12168.1816
2023-05-13T12:40:43.084Z,12963.4785
2023-05-13T12:41:43.639Z,14402.3633
2023-05-13T12:43:46.850Z,16708.1738
2023-05-13T12:44:46.989Z,17588.3633
2023-05-13T12:45:50.764Z,18526.6094
2023-05-13T12:46:51.420Z,18469.8184
2023-05-13T12:47:52.088Z,18562.9082
2023-05-13T12:48:52.458Z,19592.7266
2023-05-13T12:49:55.133Z,21478.9570
2023-05-13T12:50:55.696Z,24609.4551
2023-05-13T12:51:56.938Z,29531.6367
2023-05-13T12:52:56.905Z,34381.0898
2023-05-13T12:54:00.193Z,38306.7812
2023-05-13T12:58:13.451Z,102033.4531
2023-05-13T13:00:06.055Z,55620.3633
2023-05-13T13:01:09.360Z,51003.8242
2023-05-13T13:02:09.693Z,58082.9102
2023-05-13T13:03:13.097Z,55347.4766
2023-05-13T13:04:13.809Z,47131.6367
2023-05-13T13:05:13.869Z,47662.5469
2023-05-13T13:06:13.993Z,45029.8164
2023-05-13T13:07:14.236Z,54269.0898
2023-05-13T13:08:14.314Z,61208.7266
2023-05-13T13:09:14.297Z,57204.3633
2023-05-13T13:10:16.950Z,62669.9141
2023-05-13T13:11:19.616Z,62041.0430
2023-05-13T13:12:20.841Z,61056.0000
2023-05-13T13:13:21.001Z,64288.0000
2023-05-13T13:14:21.688Z,49165.0898
2023-05-13T13:15:22.839Z,43038.5469
2023-05-13T13:16:23.700Z,35812.3633
2023-05-13T13:17:24.130Z,32679.2734
2023-05-13T13:18:24.480Z,32381.0918
2023-05-13T13:19:24.738Z,32624.0000
2023-05-13T13:20:25.018Z,33098.1836
2023-05-13T13:21:25.113Z,32887.2734
2023-05-13T13:22:27.742Z,33058.9102
2023-05-13T13:23:27.737Z,33376.0000
2023-05-13T13:24:27.783Z,33467.6367
2023-05-13T13:25:27.830Z,32903.2734
2023-05-13T13:26:27.917Z,36775.2734
2023-05-13T13:27:46.680Z,33418.1836
2023-05-13T13:28:30.774Z,31084.0000
2023-05-13T13:29:32.342Z,30682.1816
2023-05-13T13:30:32.990Z,30514.9082
2023-05-13T13:31:33.854Z,41803.6367
2023-05-13T13:32:34.590Z,30682.1816
2023-05-13T13:33:34.615Z,32261.8184
2023-05-13T13:35:37.763Z,36077.9141
2023-05-13T13:39:43.417Z,19095.6523
2023-05-13T13:40:43.530Z,16874.1816
2023-05-13T13:41:43.795Z,16663.2734
2023-05-13T13:42:45.139Z,17373.0918
2023-05-13T13:43:45.427Z,18404.3633
2023-05-13T13:45:46.797Z,21522.9082
2023-05-13T13:46:46.899Z,23021.0918
2023-05-13T13:47:47.504Z,24946.9082
2023-05-13T13:48:47.506Z,26955.6367
2023-05-13T13:49:48.132Z,31397.8184
2023-05-13T13:50:49.361Z,28248.7266
2023-05-13T13:51:50.622Z,26914.9082
2023-05-13T13:52:53.277Z,26678.2617
2023-05-13T13:53:53.372Z,26354.9082
2023-05-13T13:54:53.574Z,26093.0918
2023-05-13T13:55:53.696Z,24667.6367
2023-05-13T13:56:53.827Z,24578.9082
2023-05-13T13:58:12.082Z,25585.4551
2023-05-13T13:58:55.861Z,22134.0000
2023-05-13T13:59:56.616Z,22426.1816
2023-05-13T14:00:58.277Z,23986.9082
2023-05-13T14:01:58.288Z,24465.4551
2023-05-13T14:03:00.142Z,22378.1816
2023-05-13T14:04:00.635Z,20411.6367
2023-05-13T14:05:00.968Z,17578.1816
2023-05-13T14:06:00.954Z,15336.9092
2023-05-13T14:07:02.132Z,13722.7275
2023-05-13T14:08:02.294Z,13210.0000
2023-05-13T14:09:02.332Z,13416.3633
2023-05-13T14:10:05.058Z,13818.9561
2023-05-13T14:11:05.196Z,14184.1816
2023-05-13T14:12:05.550Z,14436.3633
2023-05-13T14:13:05.728Z,14555.2725
2023-05-13T14:14:05.766Z,14499.6367
2023-05-13T14:15:05.881Z,14472.1816
2023-05-13T14:16:05.995Z,14824.7275
2023-05-13T14:17:06.073Z,15409.4541
2023-05-13T14:18:06.329Z,16404.3633
2023-05-13T14:19:06.663Z,17432.7266
2023-05-13T14:20:06.702Z,18050.9082
2023-05-13T14:21:07.122Z,18509.0918
2023-05-13T14:22:09.572Z,18627.1992
2023-05-13T14:23:10.295Z,18573.0918
2023-05-13T14:24:10.838Z,18475.6367
2023-05-13T14:25:11.899Z,18597.8184
2023-05-13T14:26:12.487Z,18583.2734
2023-05-13T14:27:15.725Z,17818.4355
2023-05-13T14:28:15.880Z,16535.2734
2023-05-13T14:29:19.141Z,15977.7393
2023-05-13T14:30:19.292Z,15831.2725
2023-05-13T14:32:20.867Z,17012.3633
2023-05-13T14:33:21.749Z,17648.0000
2023-05-13T14:34:23.126Z,17946.1816
2023-05-13T14:35:23.422Z,17829.8184
2023-05-13T14:36:23.737Z,17390.5449
2023-05-13T14:37:23.900Z,16939.6367
2023-05-13T14:38:24.138Z,16197.8184
2023-05-13T14:39:24.205Z,15281.4541
2023-05-13T14:40:24.470Z,14328.3633
2023-05-13T14:41:24.849Z,13428.7275
2023-05-13T14:42:25.053Z,12594.9092
2023-05-13T14:43:25.057Z,11877.0908
2023-05-13T14:44:25.169Z,11519.8184
2023-05-13T14:45:25.195Z,11534.5459
2023-05-13T14:46:25.269Z,12021.0908
2023-05-13T14:47:25.300Z,12830.7275
2023-05-13T14:48:25.387Z,13744.9092
2023-05-13T14:49:25.452Z,14798.7275
2023-05-13T14:50:25.563Z,15568.0000
2023-05-13T14:51:25.677Z,15960.7275
2023-05-13T14:52:25.830Z,16322.9092
2023-05-13T14:53:26.137Z,16725.8184
2023-05-13T14:54:26.695Z,17412.3633
2023-05-13T14:55:26.890Z,18296.7266
2023-05-13T14:56:28.110Z,19080.7266
2023-05-13T14:57:28.117Z,19662.5449
2023-05-13T14:58:28.202Z,19826.9082
2023-05-13T14:59:28.246Z,19412.3633
2023-05-13T15:01:31.164Z,16528.6953
2023-05-13T15:02:31.298Z,14343.0908
2023-05-13T15:03:31.444Z,12691.8184
2023-05-13T15:04:31.542Z,11380.0000
2023-05-13T15:05:31.764Z,10664.3633
2023-05-13T15:06:31.897Z,10540.9092
2023-05-13T15:07:32.047Z,11111.2725
2023-05-13T15:08:43.972Z,12114.3633
2023-05-13T15:09:33.472Z,12517.5557
2023-05-13T15:10:35.221Z,13255.4541
2023-05-13T15:11:37.232Z,14782.7275
2023-05-13T15:14:40.713Z,19220.3633
2023-05-13T15:15:42.124Z,19683.5547
2023-05-13T15:16:42.425Z,19616.0000
2023-05-13T15:17:43.520Z,19204.3633
2023-05-13T15:18:43.806Z,19438.5449
2023-05-13T15:19:43.996Z,17453.0918
2023-05-13T15:20:44.688Z,15287.0908
2023-05-13T15:21:45.472Z,13999.0908
2023-05-13T15:27:53.628Z,11550.0000
2023-05-13T15:34:12.206Z,11679.8184
2023-05-13T15:36:07.460Z,11627.6523
2023-05-13T15:37:07.591Z,11995.6367
2023-05-13T15:38:07.743Z,12509.2725
2023-05-13T15:39:07.768Z,13457.6367
2023-05-13T15:40:07.967Z,14420.5459
2023-05-13T15:41:10.629Z,15561.7393
2023-05-13T15:42:12.475Z,16537.5996
2023-05-13T15:43:13.274Z,17095.2734
2023-05-13T15:50:27.669Z,15573.8184
2023-05-13T15:55:28.725Z,13084.1816
2023-05-13T15:57:40.139Z,11267.4785
2023-05-13T16:00:37.589Z,11019.4785
2023-05-13T16:01:38.543Z,11487.6367
2023-05-13T16:02:39.081Z,12003.2725
2023-05-13T16:03:39.732Z,12588.1816
2023-05-13T16:05:42.872Z,12669.9131
2023-05-13T16:06:43.013Z,13119.8184
2023-05-13T16:07:43.044Z,13293.4541
2023-05-13T16:09:44.489Z,13092.1816
2023-05-13T16:10:48.296Z,12732.8691
2023-05-13T16:11:48.934Z,12158.7275
2023-05-13T16:13:51.912Z,10817.7393
2023-05-13T16:17:57.292Z,10003.0908
2023-05-13T16:18:59.978Z,9824.1738
2023-05-13T16:20:00.831Z,9538.9092
2023-05-13T16:25:07.729Z,8673.0439
2023-05-13T16:29:16.151Z,9706.7822
2023-05-13T16:31:19.249Z,10248.1738
2023-05-13T16:36:29.180Z,10587.1309
2023-05-13T16:37:32.560Z,10840.8691
2023-05-13T16:38:33.165Z,11439.2725
2023-05-13T16:48:46.908Z,9449.2178
2023-05-13T16:50:49.308Z,9061.5654
2023-05-13T16:51:52.878Z,8710.0869
2023-05-13T16:53:54.959Z,8352.0000
2023-05-13T16:54:59.064Z,8217.2178
2023-05-13T16:56:00.441Z,8076.5454
2023-05-13T16:58:02.899Z,7580.8696
2023-05-13T16:59:05.557Z,7337.0435
2023-05-13T17:00:08.195Z,7131.6523
2023-05-13T17:01:10.874Z,6981.5654
2023-05-13T17:03:16.797Z,6601.0435
2023-05-13T17:04:17.403Z,6195.2729
2023-05-13T17:07:23.001Z,4579.4780
2023-05-13T17:08:23.544Z,4021.6365
2023-05-13T17:10:26.550Z,3952.8696
2023-05-13T17:11:27.131Z,3839.6365
2023-05-13T17:12:27.260Z,3458.5454
2023-05-13T17:13:29.995Z,3148.0000
2023-05-13T17:14:30.546Z,3169.8181
2023-05-13T17:15:37.822Z,3522.0000
2023-05-13T17:18:33.910Z,5508.5454
2023-05-13T17:19:33.910Z,6013.0908
2023-05-13T17:20:34.494Z,6151.6362
2023-05-13T17:21:34.486Z,6058.3638
2023-05-13T17:22:35.135Z,5729.6362
2023-05-13T17:23:35.762Z,5282.9092
2023-05-13T17:24:36.363Z,5039.4546
2023-05-13T17:25:36.928Z,5262.1816
2023-05-13T17:33:46.706Z,6787.3042
2023-05-13T17:36:50.424Z,7408.7271
2023-05-13T17:41:57.019Z,8383.6523
2023-05-13T17:44:59.699Z,6755.6362
2023-05-13T17:46:00.240Z,6654.3638
2023-05-13T17:48:03.631Z,5737.3911
2023-05-13T17:49:04.657Z,5322.0000
2023-05-13T17:50:04.753Z,4975.8184
2023-05-13T17:51:05.394Z,4572.9092
2023-05-13T17:52:06.610Z,4174.9092
2023-05-13T17:54:09.687Z,3666.2610
2023-05-13T17:55:11.762Z,3659.2727
2023-05-13T18:01:18.931Z,3090.1819
2023-05-13T18:04:22.587Z,3390.9092
2023-05-13T18:05:23.316Z,3414.5454
2023-05-13T18:06:23.328Z,3301.2727
2023-05-13T18:07:26.629Z,3122.0869
2023-05-13T18:13:38.495Z,2667.0908
2023-05-13T18:17:44.870Z,1902.7273
2023-05-13T18:18:46.073Z,1775.4546
2023-05-13T18:19:46.456Z,1721.6364
2023-05-13T18:20:47.033Z,1686.7273
2023-05-13T18:21:47.043Z,1659.6364
2023-05-13T18:22:50.193Z,1628.6957
2023-05-13T18:36:11.008Z,684.5455
2023-05-13T18:37:14.316Z,643.4783
2023-05-13T18:38:14.327Z,602.7273
2023-05-13T18:39:17.622Z,558.4348
2023-05-13T18:40:18.262Z,497.2727
2023-05-13T18:51:35.113Z,182.0000
2023-05-13T18:52:35.631Z,170.3636
2023-05-13T18:53:35.829Z,159.6364
2023-05-13T18:54:39.147Z,149.7391
2023-05-13T18:55:40.160Z,142.7273
2023-05-13T18:56:40.700Z,133.2727
2023-05-13T19:04:48.356Z,50.9091
2023-05-13T19:06:54.150Z,43.2727
2023-05-13T19:12:57.556Z,16.1818
2023-05-13T19:13:57.746Z,13.8182
2023-05-13T19:15:01.082Z,11.8261
2023-05-13T19:16:01.849Z,9.2727
2023-05-13T19:17:01.908Z,8.3636
2023-05-13T19:18:02.845Z,7.0909
2023-05-13T19:19:03.646Z,5.0909
2023-05-13T19:20:03.670Z,5.0909
2023-05-13T19:21:04.291Z,4.0000
2023-05-13T19:24:09.987Z,1.3913
2023-05-13T19:25:10.589Z,4.0000
2023-05-13T19:27:13.361Z,0.3478
2023-05-13T19:28:14.055Z,0.0000
2023-05-13T19:30:16.573Z,0.0000
2023-05-13T19:31:36.156Z,0.0000
2023-05-13T19:35:26.354Z,0.0000
2023-05-13T19:36:26.932Z,0.0000
2023-05-13T19:37:27.560Z,0.0000
2023-05-13T19:38:27.671Z,0.0000
2023-05-13T19:39:30.974Z,0.0000
2023-05-13T19:40:31.688Z,0.0000
2023-05-13T19:42:34.775Z,0.0000
2023-05-13T19:43:34.783Z,0.0000
2023-05-13T19:44:37.991Z,0.0000
2023-05-13T19:46:41.267Z,0.0000
2023-05-13T19:47:41.905Z,0.0000
2023-05-13T19:49:48.877Z,0.0000
2023-05-13T19:50:52.231Z,0.0000
2023-05-13T19:51:52.236Z,0.0000
2023-05-13T19:52:52.889Z,0.0000
2023-05-13T19:53:53.092Z,0.0000
2023-05-13T19:54:53.781Z,0.0000